Time;durP1;ratioP1;P1;durP2;ratioP2;P2;SDS_P1;SDS_P2;PMS_P1;PMS_P2;Temp;Humidity;BMP_temperature;BMP_pressure;BME280_temperature;BME280_humidity;BME280_pressure;Samples;Min_cycle;Max_cycle;Signal;HPM_P1;HPM_P2
2022/05/12 00:01:23;;;;;;;;;3.67;3.33;;;;;18.59;53.79;101387.28;5100879;27;45713;-79
2022/05/12 00:03:50;;;;;;;;;6.25;4.50;;;;;18.53;54.24;101382.97;5098322;27;45655;-79
2022/05/12 00:06:16;;;;;;;;;6.00;3.00;;;;;18.50;53.95;101383.94;5099646;27;45257;-78
2022/05/12 00:08:41;;;;;;;;;5.75;2.75;;;;;18.43;54.23;101378.78;5096462;27;45554;-78
2022/05/12 00:11:07;;;;;;;;;3.50;3.50;;;;;18.42;54.13;101377.06;5096798;27;47070;-78
2022/05/12 00:13:32;;;;;;;;;5.00;4.00;;;;;18.39;54.56;101372.69;5102304;27;45314;-80
2022/05/12 00:15:58;;;;;;;;;2.50;2.25;;;;;18.40;54.59;101379.75;5098264;27;45573;-78
2022/05/12 00:18:25;;;;;;;;;6.75;5.50;;;;;18.41;54.63;101385.94;5097629;27;45283;-79
2022/05/12 00:20:50;;;;;;;;;5.50;5.25;;;;;18.41;54.24;101394.81;5089048;27;45529;-77
2022/05/12 00:23:21;;;;;;;;;4.75;4.75;;;;;18.42;54.57;101393.06;5100715;27;45572;-76
2022/05/12 00:25:49;;;;;;;;;5.50;4.00;;;;;18.42;54.08;101393.94;5102909;27;45273;-77
2022/05/12 00:28:16;;;;;;;;;5.75;4.50;;;;;18.41;54.45;101396.63;5102780;27;45593;-77
2022/05/12 00:30:43;;;;;;;;;6.25;4.00;;;;;18.40;54.42;101394.88;5089235;27;45500;-77
2022/05/12 00:33:10;;;;;;;;;4.00;4.00;;;;;18.41;54.29;101413.47;5082169;27;45466;-78
2022/05/12 00:35:35;;;;;;;;;9.75;6.00;;;;;18.39;54.45;101412.66;5109376;27;45487;-77
2022/05/12 00:38:02;;;;;;;;;5.50;3.25;;;;;18.41;54.60;101416.16;5083249;27;45444;-77
2022/05/12 00:40:27;;;;;;;;;4.00;4.00;;;;;18.40;54.51;101414.41;5083201;27;46667;-77
2022/05/12 00:42:59;;;;;;;;;7.00;4.75;;;;;18.39;54.59;101420.66;5102314;27;45265;-76
2022/05/12 00:45:28;;;;;;;;;4.25;4.00;;;;;18.31;54.81;101417.31;5102317;27;45369;-76
2022/05/12 00:47:53;;;;;;;;;6.25;5.75;;;;;18.29;54.36;101425.34;5103475;27;45176;-76
2022/05/12 00:50:21;;;;;;;;;5.00;5.00;;;;;18.23;54.75;101436.16;5101404;27;47223;-77
2022/05/12 00:52:47;;;;;;;;;4.75;4.25;;;;;18.21;54.70;101437.13;5096995;27;45431;-77
2022/05/12 00:55:16;;;;;;;;;4.00;4.00;;;;;18.16;54.41;101437.22;5101858;27;45276;-77
2022/05/12 00:57:50;;;;;;;;;5.75;4.50;;;;;18.13;54.52;101444.41;5094370;27;45900;-77
2022/05/12 01:00:17;;;;;;;;;3.25;3.25;;;;;18.08;54.40;101449.84;5096361;27;45600;-77
2022/05/12 01:02:47;;;;;;;;;5.50;4.00;;;;;18.02;54.35;101436.69;5091039;27;45632;-77
2022/05/12 01:05:14;;;;;;;;;4.00;4.00;;;;;17.96;53.86;101439.47;5089501;27;45319;-77
2022/05/12 01:07:40;;;;;;;;;9.50;7.25;;;;;17.90;53.91;101443.16;5102173;27;45414;-77
2022/05/12 01:10:07;;;;;;;;;6.00;6.00;;;;;17.82;54.05;101450.44;5089385;27;45507;-77
2022/05/12 01:12:33;;;;;;;;;5.25;4.00;;;;;17.76;54.20;101455.88;5091910;27;45299;-77
2022/05/12 01:14:58;;;;;;;;;6.00;5.50;;;;;17.73;54.14;101458.63;5095042;27;45345;-77
2022/05/12 01:17:24;;;;;;;;;6.25;5.25;;;;;17.68;54.30;101455.19;5092311;27;45514;-77
2022/05/12 01:19:51;;;;;;;;;9.50;8.50;;;;;17.67;54.08;101462.28;5092147;27;47824;-77
2022/05/12 01:22:54;;;;;;;;;8.75;7.00;;;;;17.64;54.28;101457.91;5111629;27;45539;-77
2022/05/12 01:25:24;;;;;;;;;6.75;5.25;;;;;17.60;54.68;101455.34;5092755;27;45156;-77
2022/05/12 01:27:49;;;;;;;;;6.25;6.25;;;;;17.62;54.66;101466.84;5089306;27;45339;-77
2022/05/12 01:30:18;;;;;;;;;6.25;5.25;;;;;17.63;54.57;101468.59;5101634;27;46990;-78
2022/05/12 01:32:44;;;;;;;;;5.75;5.00;;;;;17.64;54.71;101465.00;5096596;27;45272;-77
2022/05/12 01:35:11;;;;;;;;;5.00;5.00;;;;;17.68;54.41;101463.16;5093977;27;45312;-77
2022/05/12 01:37:43;;;;;;;;;4.25;4.25;;;;;17.65;54.47;101461.44;5089331;27;45512;-77
2022/05/12 01:40:11;;;;;;;;;7.50;7.50;;;;;17.62;54.51;101461.50;5098284;27;47927;-77
2022/05/12 01:42:36;;;;;;;;;6.75;5.50;;;;;17.59;54.82;101461.59;5082516;27;45371;-77
2022/05/12 01:45:03;;;;;;;;;6.00;6.00;;;;;17.60;54.78;101466.84;5095346;27;45404;-77
2022/05/12 01:47:29;;;;;;;;;4.25;4.25;;;;;17.59;54.93;101481.09;5094958;27;45761;-77
2022/05/12 01:49:55;;;;;;;;;4.00;4.00;;;;;17.59;54.50;101477.56;5107418;27;47982;-77
2022/05/12 01:52:21;;;;;;;;;4.25;3.25;;;;;17.53;53.82;101488.31;5095487;27;45368;-77
2022/05/12 01:54:46;;;;;;;;;6.00;4.75;;;;;17.53;53.50;101497.16;5101691;27;45388;-77
2022/05/12 01:57:12;;;;;;;;;2.00;1.75;;;;;17.50;53.03;101494.56;5099899;27;45321;-76
2022/05/12 01:59:37;;;;;;;;;2.25;2.25;;;;;17.49;52.52;101489.31;5091199;27;45698;-76
2022/05/12 02:02:03;;;;;;;;;4.00;3.25;;;;;17.48;52.54;101491.09;5098198;27;45176;-77
2022/05/12 02:04:28;;;;;;;;;4.25;3.25;;;;;17.49;52.32;101502.63;5112259;27;45415;-76
2022/05/12 02:06:54;;;;;;;;;3.00;3.00;;;;;17.48;52.13;101509.72;5103535;27;45560;-77
2022/05/12 02:09:19;;;;;;;;;3.25;3.25;;;;;17.42;52.07;101502.72;5091454;27;46020;-77
2022/05/12 02:11:45;;;;;;;;;2.25;2.25;;;;;17.41;51.83;101508.09;5098089;27;45997;-77
2022/05/12 02:14:10;;;;;;;;;4.00;3.00;;;;;17.32;51.71;101508.25;5091578;27;45253;-77
2022/05/12 02:16:36;;;;;;;;;3.00;3.00;;;;;17.29;51.52;101516.28;5098042;27;45468;-77
2022/05/12 02:19:05;;;;;;;;;3.00;1.50;;;;;17.25;51.78;101514.63;5101756;27;45874;-77
2022/05/12 02:21:31;;;;;;;;;2.50;2.50;;;;;17.26;51.72;101519.91;5096317;27;45504;-77
2022/05/12 02:23:56;;;;;;;;;4.25;3.00;;;;;17.28;51.38;101522.53;5100858;27;45298;-77
2022/05/12 02:26:22;;;;;;;;;4.00;3.00;;;;;17.25;51.61;101522.59;5096922;27;45284;-76
2022/05/12 02:28:48;;;;;;;;;2.50;2.50;;;;;17.23;51.79;101530.59;5092175;27;46554;-77
2022/05/12 02:31:14;;;;;;;;;3.00;1.25;;;;;17.26;51.83;101535.88;5081160;27;45715;-77
2022/05/12 02:33:39;;;;;;;;;2.00;2.00;;;;;17.27;51.62;101528.75;5093712;27;45179;-77
2022/05/12 02:36:05;;;;;;;;;2.75;2.00;;;;;17.29;51.65;101540.25;5081440;27;45250;-77
2022/05/12 02:38:31;;;;;;;;;2.00;2.00;;;;;17.30;51.95;101534.91;5092270;27;48322;-77
2022/05/12 02:40:56;;;;;;;;;2.00;2.00;;;;;17.29;52.12;101537.59;5081257;27;45342;-77
2022/05/12 02:43:25;;;;;;;;;5.00;3.25;;;;;17.28;51.78;101542.03;5087380;27;45591;-77
2022/05/12 02:45:54;;;;;;;;;3.75;2.00;;;;;17.28;52.18;101550.03;5093181;27;45552;-77
2022/05/12 02:48:22;;;;;;;;;3.00;2.00;;;;;17.26;52.12;101545.63;5089463;27;48262;-77
2022/05/12 02:50:49;;;;;;;;;4.00;4.00;;;;;17.24;52.28;101543.03;5094453;27;45440;-77
2022/05/12 02:53:15;;;;;;;;;2.75;2.75;;;;;17.25;52.33;101544.75;5086352;27;45452;-77
2022/05/12 02:55:41;;;;;;;;;2.75;2.75;;;;;17.27;52.65;101550.03;5100071;27;45475;-77
2022/05/12 02:58:07;;;;;;;;;3.00;2.50;;;;;17.28;52.20;101554.47;5097793;27;46573;-77
2022/05/12 03:00:33;;;;;;;;;4.00;4.00;;;;;17.28;52.51;101565.13;5096046;27;45348;-76
2022/05/12 03:03:05;;;;;;;;;3.00;3.00;;;;;17.26;52.60;101558.94;5079808;27;45330;-77
2022/05/12 03:05:31;;;;;;;;;4.25;3.25;;;;;17.22;52.43;101567.91;5079359;27;45337;-77
2022/05/12 03:07:57;;;;;;;;;3.00;3.00;;;;;17.14;52.47;101574.22;5106663;27;47184;-77
2022/05/12 03:10:23;;;;;;;;;3.00;3.00;;;;;17.05;52.68;101573.50;5094554;27;45275;-77
2022/05/12 03:12:49;;;;;;;;;6.75;4.50;;;;;17.00;52.88;101572.69;5093309;27;45389;-77
2022/05/12 03:15:15;;;;;;;;;4.00;3.00;;;;;16.94;52.89;101576.34;5094394;27;45439;-76
2022/05/12 03:17:43;;;;;;;;;1.00;1.00;;;;;16.89;53.03;101575.53;5093909;27;45224;-76
2022/05/12 03:20:14;;;;;;;;;5.00;3.75;;;;;16.82;53.35;101574.78;5088530;27;45346;-76
2022/05/12 03:22:40;;;;;;;;;2.00;2.00;;;;;16.81;53.31;101578.31;5096207;27;45601;-77
2022/05/12 03:25:09;;;;;;;;;4.00;4.00;;;;;16.73;53.47;101556.25;5092663;27;45979;-76
2022/05/12 03:27:35;;;;;;;;;4.00;2.00;;;;;16.71;53.78;101566.94;5092653;27;47010;-77
2022/05/12 03:30:01;;;;;;;;;2.00;2.00;;;;;16.70;53.84;101567.81;5089806;27;45359;-76
2022/05/12 03:32:27;;;;;;;;;4.00;4.00;;;;;16.65;54.03;101571.47;5086986;27;45201;-76
2022/05/12 03:34:52;;;;;;;;;2.25;2.25;;;;;16.62;54.31;101574.16;5090126;27;45268;-76
2022/05/12 03:37:17;;;;;;;;;4.00;3.00;;;;;16.59;54.21;101572.44;5098946;27;46676;-77
2022/05/12 03:39:44;;;;;;;;;3.25;2.50;;;;;16.54;54.48;101572.53;5107234;27;45682;-76
2022/05/12 03:42:15;;;;;;;;;1.50;1.50;;;;;16.47;54.35;101567.31;5092892;27;45393;-76
2022/05/12 03:44:46;;;;;;;;;3.50;3.50;;;;;16.36;54.24;101556.84;5090588;27;45485;-76
2022/05/12 03:47:20;;;;;;;;;3.50;2.00;;;;;16.36;54.53;101572.81;5090857;27;45377;-76
2022/05/12 03:49:50;;;;;;;;;2.00;2.00;;;;;16.29;54.67;101564.03;5109090;27;45269;-76
2022/05/12 03:52:17;;;;;;;;;3.50;3.00;;;;;16.25;55.09;101572.03;5093303;27;45357;-77
2022/05/12 03:54:43;;;;;;;;;3.00;3.00;;;;;16.11;55.17;101561.63;5098832;27;45222;-76
2022/05/12 03:57:11;;;;;;;;;4.50;4.50;;;;;16.03;55.30;101564.38;5098448;27;46035;-76
2022/05/12 03:59:38;;;;;;;;;5.25;3.75;;;;;16.01;55.26;101575.91;5089492;27;46217;-76
2022/05/12 04:02:05;;;;;;;;;2.00;2.00;;;;;15.92;55.55;101568.94;5094750;27;45282;-76
2022/05/12 04:04:32;;;;;;;;;3.00;3.00;;;;;15.82;55.91;101573.50;5091410;27;45468;-76
2022/05/12 04:06:58;;;;;;;;;4.75;4.75;;;;;15.80;56.01;101583.25;5085329;27;47385;-76
2022/05/12 04:09:24;;;;;;;;;3.00;3.00;;;;;15.70;56.41;101586.03;5088783;27;45223;-76
2022/05/12 04:11:49;;;;;;;;;5.75;5.75;;;;;15.61;56.12;101579.00;5092420;27;45437;-76
2022/05/12 04:14:15;;;;;;;;;6.50;5.00;;;;;15.62;56.73;101589.63;5090996;27;45318;-76
2022/05/12 04:16:40;;;;;;;;;4.75;3.75;;;;;15.60;56.73;101593.19;5086266;27;46449;-77
2022/05/12 04:19:06;;;;;;;;;4.25;2.25;;;;;15.61;56.77;101593.19;5099117;27;45223;-77
2022/05/12 04:21:34;;;;;;;;;5.00;4.75;;;;;15.58;57.03;101593.22;5080887;27;45453;-77
2022/05/12 04:24:01;;;;;;;;;4.25;3.00;;;;;15.58;57.38;101593.22;5099068;27;45560;-76
2022/05/12 04:26:27;;;;;;;;;5.25;5.25;;;;;15.58;56.90;101595.88;5107877;27;45389;-76
2022/05/12 04:28:53;;;;;;;;;4.25;2.25;;;;;15.52;57.38;101598.56;5092663;27;45439;-77
2022/05/12 04:31:18;;;;;;;;;4.75;4.00;;;;;15.52;56.96;101597.69;5080658;27;45461;-76
2022/05/12 04:36:27;;;;;;;;;5.25;4.00;;;;;15.44;57.44;101613.69;5088156;27;45754;-76
2022/05/12 04:38:53;;;;;;;;;4.00;2.75;;;;;15.34;57.40;101614.66;5095091;27;45637;-77
2022/05/12 04:41:18;;;;;;;;;4.75;4.00;;;;;15.34;57.29;101617.31;5087247;27;45236;-76
2022/05/12 04:43:44;;;;;;;;;5.75;5.00;;;;;15.29;57.50;101617.38;5096582;27;45523;-76
2022/05/12 04:46:09;;;;;;;;;3.50;3.25;;;;;15.33;58.02;101626.19;5088508;27;45168;-79
2022/05/12 04:48:36;;;;;;;;;1.75;1.75;;;;;15.29;58.10;101622.69;5098668;27;45843;-79
2022/05/12 04:51:03;;;;;;;;;4.50;3.75;;;;;15.30;58.28;101628.88;5095002;27;45321;-79
2022/05/12 04:53:29;;;;;;;;;3.25;3.25;;;;;15.31;57.97;101627.97;5111238;27;45343;-78
2022/05/12 04:55:55;;;;;;;;;5.00;3.75;;;;;15.34;57.68;101630.59;5099840;27;45550;-78
2022/05/12 04:58:21;;;;;;;;;7.00;5.25;;;;;15.35;58.22;101629.72;5084311;27;45278;-79
2022/05/12 05:00:47;;;;;;;;;1.00;1.00;;;;;15.29;58.37;101628.00;5098043;27;45423;-79
2022/05/12 05:03:16;;;;;;;;;3.25;2.75;;;;;15.22;58.13;101620.97;5098388;27;45501;-79
2022/05/12 05:05:42;;;;;;;;;3.25;3.00;;;;;15.23;58.08;101633.34;5091889;27;45634;-79
2022/05/12 05:08:07;;;;;;;;;5.25;4.75;;;;;15.18;58.55;101630.75;5093969;27;45383;-79
2022/05/12 05:10:34;;;;;;;;;7.25;6.00;;;;;15.22;58.48;101639.56;5089699;27;45432;-79
2022/05/12 05:12:59;;;;;;;;;3.75;3.75;;;;;15.19;58.65;101635.16;5089735;27;45289;-79
2022/05/12 05:15:26;;;;;;;;;7.50;4.75;;;;;15.19;58.10;101635.16;5111095;27;46110;-80
2022/05/12 05:17:52;;;;;;;;;4.75;4.75;;;;;15.22;58.12;101639.56;5107544;27;45340;-79
2022/05/12 05:20:21;;;;;;;;;4.75;3.50;;;;;15.22;58.44;101644.84;5089530;27;45316;-78
2022/05/12 05:22:48;;;;;;;;;5.25;4.25;;;;;15.18;58.55;101641.34;5097372;27;45665;-79
2022/05/12 05:25:15;;;;;;;;;3.50;3.50;;;;;15.18;58.71;101644.00;5092007;27;48099;-80
2022/05/12 05:27:43;;;;;;;;;5.00;3.00;;;;;15.17;58.77;101644.00;5094391;27;45493;-80
2022/05/12 05:30:12;;;;;;;;;6.00;5.25;;;;;15.19;58.41;101644.88;5092050;27;45224;-80
2022/05/12 05:32:38;;;;;;;;;3.00;3.00;;;;;15.21;58.61;101643.97;5088675;27;45416;-79
2022/05/12 05:35:06;;;;;;;;;5.25;3.00;;;;;15.24;58.60;101652.81;5101326;27;47663;-81
2022/05/12 05:37:31;;;;;;;;;2.75;2.50;;;;;15.23;58.21;101662.53;5098100;27;45748;-81
2022/05/12 05:39:57;;;;;;;;;8.00;6.25;;;;;15.21;58.52;101662.56;5097980;27;45368;-80
2022/05/12 05:42:23;;;;;;;;;7.50;5.00;;;;;15.23;58.49;101665.16;5084318;27;45322;-80
2022/05/12 05:44:49;;;;;;;;;5.75;4.50;;;;;15.14;58.51;101663.47;5090806;27;48332;-80
2022/05/12 05:47:15;;;;;;;;;4.00;3.00;;;;;15.18;58.49;101681.16;5095455;27;45255;-80
2022/05/12 05:49:41;;;;;;;;;5.75;5.75;;;;;15.12;59.04;101677.66;5092778;27;45284;-82
2022/05/12 05:54:52;;;;;;;;;1.75;1.75;;;;;15.20;58.52;101686.41;5102341;27;45648;-81
2022/05/12 05:57:25;;;;;;;;;5.50;4.75;;;;;15.20;58.44;101692.59;5098667;27;45427;-80
2022/05/12 05:59:58;;;;;;;;;2.75;2.75;;;;;15.16;58.65;101698.84;5099822;27;45426;-81
2022/05/12 06:02:24;;;;;;;;;5.00;4.75;;;;;15.22;58.91;101708.53;5086951;27;45602;-81
2022/05/12 06:04:50;;;;;;;;;6.50;4.75;;;;;15.25;59.00;101723.53;5100348;27;47405;-81
2022/05/12 06:07:19;;;;;;;;;5.00;4.75;;;;;15.28;58.92;101718.19;5080363;28;45352;-81
2022/05/12 06:09:44;;;;;;;;;5.00;4.75;;;;;15.28;58.67;101724.38;5093832;27;45447;-81
2022/05/12 06:12:10;;;;;;;;;6.00;4.50;;;;;15.32;58.88;101717.31;5088354;27;45510;-80
2022/05/12 06:14:36;;;;;;;;;6.50;5.25;;;;;15.38;58.66;101722.56;5088148;27;45579;-81
2022/05/12 06:17:03;;;;;;;;;4.00;4.00;;;;;15.42;58.54;101730.50;5094301;27;45301;-80
2022/05/12 06:19:28;;;;;;;;;6.00;6.00;;;;;15.38;58.56;101722.56;5094928;27;45278;-80
2022/05/12 06:21:53;;;;;;;;;4.50;4.50;;;;;15.38;58.46;101717.25;5089093;27;45499;-80
2022/05/12 06:24:19;;;;;;;;;2.50;1.50;;;;;15.42;58.31;101725.19;5099582;27;47386;-80
2022/05/12 06:26:45;;;;;;;;;8.75;7.75;;;;;15.42;58.08;101716.31;5088204;27;45230;-80
2022/05/12 06:29:10;;;;;;;;;6.25;6.25;;;;;15.43;58.28;101718.09;5088390;27;45156;-81
2022/05/12 06:31:36;;;;;;;;;6.50;5.50;;;;;15.49;58.13;101739.25;5093897;27;45270;-81
2022/05/12 06:34:01;;;;;;;;;6.00;3.50;;;;;15.50;58.48;101727.75;5094797;27;45486;-81
2022/05/12 06:36:31;;;;;;;;;4.00;4.00;;;;;15.55;57.77;101739.19;5088014;27;45728;-81
2022/05/12 06:38:56;;;;;;;;;7.25;5.00;;;;;15.59;58.02;101742.72;5100669;27;45503;-81
2022/05/12 06:41:24;;;;;;;;;5.50;4.00;;;;;15.56;58.04;101737.47;5091716;27;45314;-81
2022/05/12 06:43:50;;;;;;;;;7.50;6.25;;;;;15.58;57.75;101743.59;5093273;27;45230;-81
2022/05/12 06:46:17;;;;;;;;;9.75;6.75;;;;;15.64;57.70;101752.41;5088751;27;45297;-81
2022/05/12 06:48:44;;;;;;;;;6.25;4.00;;;;;15.62;57.85;101748.88;5098993;27;45571;-81
2022/05/12 06:51:11;;;;;;;;;3.00;3.00;;;;;15.70;57.85;101746.19;5090481;27;45455;-81
2022/05/12 06:53:37;;;;;;;;;4.75;4.75;;;;;15.73;57.54;101734.69;5106735;27;47923;-81
2022/05/12 06:56:03;;;;;;;;;7.00;4.00;;;;;15.82;57.37;101742.53;5101882;27;45289;-81
2022/05/12 06:58:28;;;;;;;;;5.00;5.00;;;;;15.87;57.22;101746.91;5097963;27;45360;-81
2022/05/12 07:00:54;;;;;;;;;7.25;5.50;;;;;15.91;57.14;101745.13;5099829;27;45344;-81
2022/05/12 07:03:19;;;;;;;;;6.50;5.75;;;;;15.99;56.95;101745.94;5098477;27;47382;-81
2022/05/12 07:05:45;;;;;;;;;4.75;2.75;;;;;16.03;56.63;101750.31;5087677;27;45407;-81
2022/05/12 07:08:11;;;;;;;;;6.00;4.00;;;;;16.09;56.77;101752.91;5088081;27;45342;-80
2022/05/12 07:10:37;;;;;;;;;4.75;3.50;;;;;16.12;56.37;101759.06;5093123;27;45336;-81
2022/05/12 07:13:02;;;;;;;;;8.75;6.50;;;;;16.12;56.15;101756.41;5093001;27;47238;-81
2022/05/12 07:15:28;;;;;;;;;3.50;3.00;;;;;16.17;55.97;101759.91;5095787;27;45664;-82
2022/05/12 07:17:55;;;;;;;;;4.00;4.00;;;;;16.19;54.97;101764.31;5092812;27;45417;-81
2022/05/12 07:28:36;;;;;;;;;5.00;4.00;;;;;16.41;54.46;101754.34;5091341;27;45377;-82
2022/05/12 07:31:05;;;;;;;;;6.00;4.00;;;;;16.46;54.51;101755.13;5093384;27;45281;-81
2022/05/12 07:33:58;;;;;;;;;6.00;3.50;;;;;16.53;54.23;101748.00;5089538;27;47226;-81
2022/05/12 07:36:29;;;;;;;;;4.00;3.00;;;;;16.58;53.85;101740.84;5077200;27;45452;-81
2022/05/12 07:38:56;;;;;;;;;4.00;4.00;;;;;16.63;53.64;101746.97;5092606;27;45478;-81
2022/05/12 07:41:23;;;;;;;;;6.50;4.75;;;;;16.73;53.16;101748.63;5087633;27;46360;-80
2022/05/12 07:43:51;;;;;;;;;5.75;4.75;;;;;16.80;53.09;101749.44;5097897;27;47600;-80
2022/05/12 07:46:19;;;;;;;;;3.75;3.75;;;;;16.86;52.03;101751.13;5089071;27;45226;-79
2022/05/12 07:48:45;;;;;;;;;4.50;4.00;;;;;16.87;52.45;101753.78;5095633;27;45508;-79
2022/05/12 07:51:12;;;;;;;;;4.50;4.00;;;;;16.96;52.28;101758.97;5097679;27;45520;-78
2022/05/12 07:53:37;;;;;;;;;2.50;1.50;;;;;17.07;52.31;101749.97;5103006;27;48126;-79
2022/05/12 07:56:03;;;;;;;;;3.00;3.00;;;;;17.13;52.21;101752.53;5099210;27;45330;-79
2022/05/12 07:58:30;;;;;;;;;3.00;3.00;;;;;17.23;51.75;101755.94;5109155;27;45310;-80
2022/05/12 08:00:55;;;;;;;;;2.00;2.00;;;;;17.32;50.99;101759.34;5107173;27;46475;-79
2022/05/12 08:03:22;;;;;;;;;3.00;3.00;;;;;17.39;50.67;101758.34;5103902;27;47779;-79
2022/05/12 08:05:48;;;;;;;;;5.00;4.00;;;;;17.45;50.48;101762.69;5089971;27;45359;-79
2022/05/12 08:08:13;;;;;;;;;2.00;2.00;;;;;17.51;50.16;101764.34;5092073;27;45316;-79
2022/05/12 08:10:39;;;;;;;;;3.00;3.00;;;;;17.56;49.66;101759.84;5079784;28;45539;-80
2022/05/12 08:13:07;;;;;;;;;4.25;3.75;;;;;17.59;48.97;101766.00;5080298;27;46073;-78
2022/05/12 08:15:33;;;;;;;;;2.00;1.67;;;;;17.70;48.60;101765.84;5088818;27;45539;-77
2022/05/12 08:17:58;;;;;;;;;2.25;2.25;;;;;17.78;48.53;101768.38;5080775;27;45306;-77
2022/05/12 08:20:25;;;;;;;;;2.50;2.50;;;;;17.87;47.67;101778.03;5095022;27;45588;-77
2022/05/12 08:22:51;;;;;;;;;1.75;1.50;;;;;17.90;47.23;101768.19;5091420;27;46160;-77
2022/05/12 08:25:17;;;;;;;;;2.00;1.33;;;;;17.95;47.45;101766.31;5089030;27;45972;-77
2022/05/12 08:27:42;;;;;;;;;1.33;1.00;;;;;18.05;47.04;101769.69;5080908;27;45404;-77
2022/05/12 08:30:12;;;;;;;;;2.33;1.67;;;;;18.13;47.01;101765.09;5088739;27;45286;-77
2022/05/12 08:32:38;;;;;;;;;3.00;1.67;;;;;18.20;46.66;101765.84;5105467;27;47295;-78
2022/05/12 08:35:05;;;;;;;;;2.00;2.00;;;;;18.24;46.46;101772.91;5094901;27;45758;-78
2022/05/12 08:37:30;;;;;;;;;3.33;2.00;;;;;18.29;45.68;101769.22;5091859;27;45250;-77
2022/05/12 08:39:56;;;;;;;;;3.75;2.75;;;;;18.38;46.22;101772.63;5102157;27;45436;-77
2022/05/12 08:42:24;;;;;;;;;2.00;1.00;;;;;18.45;45.71;101775.16;5079558;27;45776;-77
2022/05/12 08:44:50;;;;;;;;;5.50;2.50;;;;;18.50;45.62;101770.59;5094181;27;45438;-77
2022/05/12 08:47:24;;;;;;;;;4.00;1.50;;;;;18.59;46.14;101774.00;5098423;27;45344;-77
2022/05/12 08:49:51;;;;;;;;;2.67;2.67;;;;;18.69;45.82;101773.75;5098596;27;45533;-77
2022/05/12 08:52:46;;;;;;;;;4.00;3.00;;;;;18.80;45.84;101770.03;5106039;27;48144;-77
2022/05/12 08:55:30;;;;;;;;;2.75;2.00;;;;;18.89;45.51;101768.03;5099232;27;45321;-77
2022/05/12 08:58:15;;;;;;;;;2.25;2.25;;;;;18.97;45.48;101762.53;5092190;27;45423;-77
2022/05/12 09:01:06;;;;;;;;;2.67;2.67;;;;;19.04;45.59;101756.16;5088334;27;45450;-77
2022/05/12 09:04:10;;;;;;;;;3.33;2.33;;;;;19.13;45.63;101750.56;5088918;27;45353;-78
2022/05/12 09:06:57;;;;;;;;;3.33;3.00;;;;;19.21;45.21;101747.72;5116519;27;45404;-77
2022/05/12 09:09:38;;;;;;;;;3.00;2.00;;;;;19.32;44.40;101747.47;5101493;27;45507;-78
2022/05/12 09:12:35;;;;;;;;;3.00;2.00;;;;;19.43;44.43;101748.09;5101477;27;45269;-78
2022/05/12 09:15:08;;;;;;;;;2.50;2.00;;;;;19.53;43.94;101754.97;5101184;27;47239;-78
2022/05/12 09:17:46;;;;;;;;;3.00;1.67;;;;;19.63;43.55;101757.44;5102892;27;45225;-78
2022/05/12 09:20:13;;;;;;;;;3.00;3.00;;;;;19.74;43.68;101753.59;5087395;27;45388;-79
2022/05/12 09:22:41;;;;;;;;;3.00;2.00;;;;;19.88;43.18;101761.25;5096657;27;45768;-77
2022/05/12 09:25:07;;;;;;;;;6.00;6.00;;;;;20.03;43.25;101762.66;5094400;27;45419;-76
2022/05/12 09:27:36;;;;;;;;;31.50;24.25;;;;;20.19;42.63;101758.63;5093745;27;46112;-76
2022/05/12 09:30:05;;;;;;;;;4.67;3.00;;;;;20.40;42.72;101762.50;5091070;27;45417;-76
2022/05/12 09:32:37;;;;;;;;;3.00;1.67;;;;;20.53;42.64;101763.03;5088780;27;45317;-77
2022/05/12 09:35:06;;;;;;;;;2.00;2.00;;;;;20.67;42.24;101758.19;5101158;27;48456;-77
2022/05/12 09:37:32;;;;;;;;;2.67;2.67;;;;;20.75;42.06;101754.41;5098355;27;45510;-76
2022/05/12 09:40:39;;;;;;;;;5.00;2.00;;;;;20.83;41.76;101752.38;5091647;27;45296;-76
2022/05/12 09:43:29;;;;;;;;;2.67;1.33;;;;;21.00;41.70;101749.19;5089838;27;45389;-77
2022/05/12 09:46:05;;;;;;;;;2.00;2.00;;;;;21.12;41.10;101744.31;5087514;27;46468;-77
2022/05/12 09:48:36;;;;;;;;;1.33;1.00;;;;;21.21;41.06;101739.59;5087118;27;45443;-79
2022/05/12 09:51:32;;;;;;;;;1.00;1.00;;;;;21.28;40.52;101744.72;5091883;27;45420;-78
2022/05/12 09:54:28;;;;;;;;;3.00;3.00;;;;;21.29;40.39;101746.44;5092667;27;45445;-78
2022/05/12 09:57:26;;;;;;;;;2.00;2.00;;;;;21.30;40.23;101744.63;5096848;27;48232;-78
2022/05/12 09:59:57;;;;;;;;;3.00;1.00;;;;;21.35;39.92;101731.97;5084881;27;45867;-78
2022/05/12 10:08:08;;;;;;;;;4.67;3.00;;;;;21.55;39.57;101726.88;5088204;27;45273;-78
2022/05/12 10:10:34;;;;;;;;;3.00;1.00;;;;;21.61;39.98;101724.91;5093727;27;45299;-76
2022/05/12 10:13:24;;;;;;;;;2.67;1.67;;;;;21.70;39.73;101727.28;5094968;27;45254;-78
2022/05/12 10:15:53;;;;;;;;;1.33;1.33;;;;;21.80;39.41;101728.72;5091717;27;45515;-78
2022/05/12 10:18:25;;;;;;;;;2.00;2.00;;;;;21.85;39.33;101728.56;5093656;27;46978;-76
2022/05/12 10:20:55;;;;;;;;;1.33;0.00;;;;;21.86;38.93;101722.25;5091018;27;45491;-76
2022/05/12 10:23:27;;;;;;;;;1.67;1.00;;;;;21.87;38.87;101715.97;5092388;27;45324;-75
2022/05/12 10:26:24;;;;;;;;;2.00;2.00;;;;;21.85;39.02;101715.16;5096000;27;45415;-76
2022/05/12 10:29:16;;;;;;;;;2.00;2.00;;;;;21.84;38.88;101710.69;5101381;27;45355;-78
2022/05/12 10:31:59;;;;;;;;;1.00;1.00;;;;;21.85;38.78;101709.78;5087089;27;45950;-76
2022/05/12 10:34:44;;;;;;;;;1.00;1.00;;;;;21.84;38.77;101719.66;5096527;27;45452;-79
2022/05/12 10:38:06;;;;;;;;;3.33;2.00;;;;;21.85;38.71;101713.34;5097719;27;45606;-79
2022/05/12 10:40:51;;;;;;;;;2.00;2.00;;;;;21.93;38.61;101716.63;5043938;28;46603;-79
2022/05/12 10:43:34;;;;;;;;;2.00;2.00;;;;;22.08;38.57;101717.91;5029672;28;45496;-78
2022/05/12 10:46:05;;;;;;;;;2.33;2.00;;;;;22.23;38.48;101716.47;5069235;27;45479;-78
2022/05/12 10:49:04;;;;;;;;;2.33;2.00;;;;;22.35;38.19;101717.84;5086126;27;45677;-78
2022/05/12 10:52:12;;;;;;;;;1.00;1.00;;;;;22.43;38.15;101723.81;5104942;27;45604;-78
2022/05/12 10:55:15;;;;;;;;;3.00;1.33;;;;;22.43;38.19;101719.31;5100491;27;45516;-78
2022/05/12 10:58:07;;;;;;;;;1.00;1.00;;;;;22.52;37.79;101712.69;5088698;27;45457;-78
2022/05/12 11:01:00;;;;;;;;;3.00;2.00;;;;;22.60;37.46;101707.91;5093406;27;45424;-78
2022/05/12 11:03:54;;;;;;;;;1.33;1.33;;;;;22.67;37.57;101714.81;5083932;27;45391;-79
2022/05/12 11:06:29;;;;;;;;;1.00;1.00;;;;;22.78;36.99;101711.69;5091769;27;45511;-79
2022/05/12 11:09:01;;;;;;;;;2.00;2.00;;;;;22.87;37.12;101713.13;5097445;27;45457;-79
2022/05/12 11:11:33;;;;;;;;;4.67;3.00;;;;;22.97;36.98;101706.50;5097754;27;45351;-78
2022/05/12 11:14:04;;;;;;;;;2.00;2.00;;;;;23.04;36.83;101707.13;5092113;27;46973;-78
2022/05/12 11:16:56;;;;;;;;;3.00;2.00;;;;;23.02;36.04;101709.00;5110561;27;45482;-78
2022/05/12 11:19:24;;;;;;;;;1.67;1.00;;;;;23.04;36.85;101709.81;5091143;27;45287;-78
2022/05/12 11:22:24;;;;;;;;;1.00;1.00;;;;;23.16;36.21;101703.06;5097770;27;45840;-78
2022/05/12 11:24:53;;;;;;;;;3.00;3.00;;;;;23.36;36.03;101707.63;5095133;27;46446;-78
2022/05/12 11:27:33;;;;;;;;;1.33;1.33;;;;;23.47;36.11;101708.03;5098273;27;45476;-78
2022/05/12 11:30:23;;;;;;;;;2.00;1.67;;;;;23.54;35.92;101712.22;5087822;27;45367;-77
2022/05/12 11:33:04;;;;;;;;;2.00;2.00;;;;;23.67;35.44;101710.75;5096286;27;45790;-77
2022/05/12 11:35:36;;;;;;;;;2.00;2.00;;;;;23.70;35.63;101705.22;5098982;27;45333;-77
2022/05/12 11:38:10;;;;;;;;;3.00;3.00;;;;;23.70;35.48;101709.75;5089818;27;45388;-77
2022/05/12 11:40:40;;;;;;;;;3.00;3.00;;;;;23.73;35.69;101699.75;5097504;27;45377;-78
2022/05/12 11:46:41;;;;;;;;;2.00;2.00;;;;;23.83;35.59;101708.31;5098837;27;45562;-78
2022/05/12 11:49:31;;;;;;;;;4.00;4.00;;;;;23.94;35.44;101708.69;5074634;27;45484;-78
2022/05/12 11:52:00;;;;;;;;;3.67;2.00;;;;;24.10;35.01;101705.34;5097692;27;45557;-78
2022/05/12 11:54:35;;;;;;;;;2.67;2.67;;;;;24.18;34.91;101701.34;5096986;27;45584;-78
2022/05/12 11:57:19;;;;;;;;;2.67;2.67;;;;;24.27;35.12;101704.56;5098192;27;45505;-78
2022/05/12 11:59:47;;;;;;;;;2.00;2.00;;;;;24.43;35.09;101695.72;5086790;27;45329;-78
2022/05/12 12:02:44;;;;;;;;;3.00;3.00;;;;;24.68;34.45;101697.28;5095934;27;45514;-77